sensor_id;sensor_type;location;lat;lon;timestamp;P1;durP1;ratioP1;P2;durP2;ratioP2
28311;SDS011;15572;48.810;9.148;2023-02-15T00:01:31;54.97;;;26.03;;
28311;SDS011;15572;48.810;9.148;2023-02-15T00:06:28;45.57;;;24.10;;
28311;SDS011;15572;48.810;9.148;2023-02-15T00:11:26;44.73;;;23.30;;
28311;SDS011;15572;48.810;9.148;2023-02-15T00:16:44;46.70;;;23.33;;
28311;SDS011;15572;48.810;9.148;2023-02-15T00:21:41;44.37;;;23.73;;
28311;SDS011;15572;48.810;9.148;2023-02-15T00:26:39;44.47;;;23.63;;
28311;SDS011;15572;48.810;9.148;2023-02-15T00:31:36;41.77;;;22.00;;
28311;SDS011;15572;48.810;9.148;2023-02-15T00:36:34;44.80;;;23.40;;
28311;SDS011;15572;48.810;9.148;2023-02-15T00:41:30;41.83;;;22.63;;
28311;SDS011;15572;48.810;9.148;2023-02-15T00:46:28;45.77;;;22.13;;
28311;SDS011;15572;48.810;9.148;2023-02-15T00:51:25;44.17;;;23.50;;
28311;SDS011;15572;48.810;9.148;2023-02-15T00:56:22;44.33;;;23.10;;
28311;SDS011;15572;48.810;9.148;2023-02-15T01:01:19;41.73;;;23.07;;
28311;SDS011;15572;48.810;9.148;2023-02-15T01:06:18;53.33;;;24.40;;
28311;SDS011;15572;48.810;9.148;2023-02-15T01:11:15;45.80;;;22.47;;
28311;SDS011;15572;48.810;9.148;2023-02-15T01:16:16;44.93;;;22.33;;
28311;SDS011;15572;48.810;9.148;2023-02-15T01:21:14;43.53;;;21.87;;
28311;SDS011;15572;48.810;9.148;2023-02-15T01:26:14;44.83;;;22.97;;
28311;SDS011;15572;48.810;9.148;2023-02-15T01:31:12;42.13;;;22.23;;
28311;SDS011;15572;48.810;9.148;2023-02-15T01:36:10;46.97;;;22.00;;
28311;SDS011;15572;48.810;9.148;2023-02-15T01:41:07;41.00;;;21.67;;
28311;SDS011;15572;48.810;9.148;2023-02-15T01:46:19;41.70;;;21.13;;
28311;SDS011;15572;48.810;9.148;2023-02-15T01:51:21;40.20;;;21.83;;
28311;SDS011;15572;48.810;9.148;2023-02-15T01:56:21;40.90;;;20.67;;
28311;SDS011;15572;48.810;9.148;2023-02-15T02:01:22;43.87;;;21.37;;
28311;SDS011;15572;48.810;9.148;2023-02-15T02:06:19;41.80;;;21.20;;
28311;SDS011;15572;48.810;9.148;2023-02-15T02:11:16;38.97;;;20.43;;
28311;SDS011;15572;48.810;9.148;2023-02-15T02:16:14;44.20;;;21.07;;
28311;SDS011;15572;48.810;9.148;2023-02-15T02:21:26;39.97;;;19.97;;
28311;SDS011;15572;48.810;9.148;2023-02-15T02:26:47;44.87;;;21.40;;
28311;SDS011;15572;48.810;9.148;2023-02-15T02:37:30;45.13;;;22.87;;
28311;SDS011;15572;48.810;9.148;2023-02-15T02:42:34;42.27;;;20.43;;
28311;SDS011;15572;48.810;9.148;2023-02-15T02:47:36;40.30;;;22.00;;
28311;SDS011;15572;48.810;9.148;2023-02-15T02:52:39;37.83;;;19.43;;
28311;SDS011;15572;48.810;9.148;2023-02-15T02:57:39;42.87;;;21.73;;
28311;SDS011;15572;48.810;9.148;2023-02-15T03:02:42;45.53;;;21.70;;
28311;SDS011;15572;48.810;9.148;2023-02-15T03:07:45;43.87;;;22.57;;
28311;SDS011;15572;48.810;9.148;2023-02-15T03:12:45;46.77;;;22.17;;
28311;SDS011;15572;48.810;9.148;2023-02-15T03:17:43;47.73;;;22.93;;
28311;SDS011;15572;48.810;9.148;2023-02-15T03:22:42;53.87;;;22.17;;
28311;SDS011;15572;48.810;9.148;2023-02-15T03:27:49;71.70;;;22.80;;
28311;SDS011;15572;48.810;9.148;2023-02-15T03:32:48;57.77;;;21.80;;
28311;SDS011;15572;48.810;9.148;2023-02-15T03:37:48;50.90;;;22.80;;
28311;SDS011;15572;48.810;9.148;2023-02-15T03:42:51;54.93;;;23.40;;
28311;SDS011;15572;48.810;9.148;2023-02-15T03:47:55;57.00;;;24.47;;
28311;SDS011;15572;48.810;9.148;2023-02-15T03:52:55;99.27;;;24.37;;
28311;SDS011;15572;48.810;9.148;2023-02-15T03:57:55;102.83;;;25.90;;
28311;SDS011;15572;48.810;9.148;2023-02-15T04:03:22;77.90;;;24.30;;
28311;SDS011;15572;48.810;9.148;2023-02-15T04:08:27;96.93;;;25.03;;
28311;SDS011;15572;48.810;9.148;2023-02-15T04:13:38;83.67;;;24.43;;
28311;SDS011;15572;48.810;9.148;2023-02-15T04:18:35;102.90;;;23.97;;
28311;SDS011;15572;48.810;9.148;2023-02-15T04:23:51;157.80;;;22.47;;
28311;SDS011;15572;48.810;9.148;2023-02-15T04:29:05;168.17;;;25.50;;
28311;SDS011;15572;48.810;9.148;2023-02-15T04:34:02;115.40;;;25.20;;
28311;SDS011;15572;48.810;9.148;2023-02-15T04:38:59;89.60;;;24.40;;
28311;SDS011;15572;48.810;9.148;2023-02-15T04:43:56;69.80;;;24.43;;
28311;SDS011;15572;48.810;9.148;2023-02-15T04:48:52;80.90;;;26.50;;
28311;SDS011;15572;48.810;9.148;2023-02-15T04:53:50;61.97;;;25.77;;
28311;SDS011;15572;48.810;9.148;2023-02-15T04:58:49;65.00;;;25.43;;
28311;SDS011;15572;48.810;9.148;2023-02-15T05:03:46;53.23;;;24.80;;
28311;SDS011;15572;48.810;9.148;2023-02-15T05:08:42;58.17;;;23.70;;
28311;SDS011;15572;48.810;9.148;2023-02-15T05:13:39;78.53;;;25.40;;
28311;SDS011;15572;48.810;9.148;2023-02-15T05:18:37;206.03;;;26.40;;
28311;SDS011;15572;48.810;9.148;2023-02-15T05:23:34;137.03;;;24.53;;
28311;SDS011;15572;48.810;9.148;2023-02-15T05:28:30;166.03;;;24.20;;
28311;SDS011;15572;48.810;9.148;2023-02-15T05:33:26;78.73;;;24.67;;
28311;SDS011;15572;48.810;9.148;2023-02-15T05:38:23;72.13;;;25.07;;
28311;SDS011;15572;48.810;9.148;2023-02-15T05:43:20;87.60;;;25.03;;
28311;SDS011;15572;48.810;9.148;2023-02-15T05:48:17;62.07;;;23.80;;
28311;SDS011;15572;48.810;9.148;2023-02-15T05:53:15;88.53;;;24.20;;
28311;SDS011;15572;48.810;9.148;2023-02-15T05:58:12;80.63;;;24.47;;
28311;SDS011;15572;48.810;9.148;2023-02-15T06:03:09;198.20;;;24.87;;
28311;SDS011;15572;48.810;9.148;2023-02-15T06:08:05;169.53;;;24.87;;
28311;SDS011;15572;48.810;9.148;2023-02-15T06:13:02;123.20;;;24.70;;
28311;SDS011;15572;48.810;9.148;2023-02-15T06:17:59;159.77;;;23.70;;
28311;SDS011;15572;48.810;9.148;2023-02-15T06:22:57;97.97;;;23.60;;
28311;SDS011;15572;48.810;9.148;2023-02-15T06:27:53;84.80;;;24.63;;
28311;SDS011;15572;48.810;9.148;2023-02-15T06:32:49;69.97;;;24.40;;
28311;SDS011;15572;48.810;9.148;2023-02-15T06:37:47;78.63;;;23.33;;
28311;SDS011;15572;48.810;9.148;2023-02-15T06:42:44;79.53;;;23.20;;
28311;SDS011;15572;48.810;9.148;2023-02-15T06:47:40;109.03;;;23.53;;
28311;SDS011;15572;48.810;9.148;2023-02-15T06:52:37;98.13;;;23.00;;
28311;SDS011;15572;48.810;9.148;2023-02-15T06:57:35;87.80;;;21.33;;
28311;SDS011;15572;48.810;9.148;2023-02-15T07:02:31;111.67;;;23.60;;
28311;SDS011;15572;48.810;9.148;2023-02-15T07:07:28;126.03;;;22.90;;
28311;SDS011;15572;48.810;9.148;2023-02-15T07:12:24;90.43;;;23.43;;
28311;SDS011;15572;48.810;9.148;2023-02-15T07:17:40;83.47;;;24.00;;
28311;SDS011;15572;48.810;9.148;2023-02-15T07:22:37;64.03;;;24.93;;
28311;SDS011;15572;48.810;9.148;2023-02-15T07:27:35;61.70;;;22.30;;
28311;SDS011;15572;48.810;9.148;2023-02-15T07:32:32;86.47;;;22.70;;
28311;SDS011;15572;48.810;9.148;2023-02-15T07:37:30;85.63;;;23.90;;
28311;SDS011;15572;48.810;9.148;2023-02-15T07:42:26;91.87;;;25.17;;
28311;SDS011;15572;48.810;9.148;2023-02-15T07:47:23;81.13;;;25.77;;
28311;SDS011;15572;48.810;9.148;2023-02-15T07:52:19;93.50;;;26.07;;
28311;SDS011;15572;48.810;9.148;2023-02-15T07:57:17;82.60;;;25.47;;
28311;SDS011;15572;48.810;9.148;2023-02-15T08:02:14;100.60;;;25.73;;
28311;SDS011;15572;48.810;9.148;2023-02-15T08:07:10;135.57;;;24.73;;
28311;SDS011;15572;48.810;9.148;2023-02-15T08:12:06;151.83;;;25.20;;
28311;SDS011;15572;48.810;9.148;2023-02-15T08:17:04;87.50;;;23.83;;
28311;SDS011;15572;48.810;9.148;2023-02-15T08:22:01;51.17;;;23.80;;
28311;SDS011;15572;48.810;9.148;2023-02-15T08:27:00;50.93;;;25.10;;
28311;SDS011;15572;48.810;9.148;2023-02-15T08:31:58;64.27;;;25.17;;
28311;SDS011;15572;48.810;9.148;2023-02-15T08:36:58;54.73;;;25.23;;
28311;SDS011;15572;48.810;9.148;2023-02-15T08:41:55;63.40;;;25.03;;
28311;SDS011;15572;48.810;9.148;2023-02-15T08:46:52;74.33;;;25.33;;
28311;SDS011;15572;48.810;9.148;2023-02-15T08:51:49;59.63;;;25.50;;
28311;SDS011;15572;48.810;9.148;2023-02-15T08:56:47;63.27;;;25.03;;
28311;SDS011;15572;48.810;9.148;2023-02-15T09:01:44;58.43;;;25.00;;
28311;SDS011;15572;48.810;9.148;2023-02-15T09:06:44;48.80;;;24.87;;
28311;SDS011;15572;48.810;9.148;2023-02-15T09:11:42;60.03;;;25.97;;
28311;SDS011;15572;48.810;9.148;2023-02-15T09:16:42;58.77;;;26.97;;
28311;SDS011;15572;48.810;9.148;2023-02-15T09:21:41;53.33;;;26.43;;
28311;SDS011;15572;48.810;9.148;2023-02-15T09:26:38;61.33;;;28.37;;
28311;SDS011;15572;48.810;9.148;2023-02-15T09:31:37;49.83;;;26.97;;
28311;SDS011;15572;48.810;9.148;2023-02-15T09:36:38;50.83;;;26.90;;
28311;SDS011;15572;48.810;9.148;2023-02-15T09:47:16;52.17;;;27.43;;
28311;SDS011;15572;48.810;9.148;2023-02-15T09:52:31;53.97;;;28.07;;
28311;SDS011;15572;48.810;9.148;2023-02-15T09:57:36;52.73;;;27.63;;
28311;SDS011;15572;48.810;9.148;2023-02-15T10:02:44;54.77;;;28.57;;
28311;SDS011;15572;48.810;9.148;2023-02-15T10:08:17;56.70;;;29.07;;
28311;SDS011;15572;48.810;9.148;2023-02-15T10:13:26;54.07;;;29.17;;
28311;SDS011;15572;48.810;9.148;2023-02-15T10:23:57;51.30;;;27.90;;
28311;SDS011;15572;48.810;9.148;2023-02-15T10:29:09;51.33;;;27.50;;
28311;SDS011;15572;48.810;9.148;2023-02-15T10:34:15;52.17;;;27.43;;
28311;SDS011;15572;48.810;9.148;2023-02-15T10:39:16;56.57;;;29.33;;
28311;SDS011;15572;48.810;9.148;2023-02-15T10:44:24;53.40;;;28.13;;
28311;SDS011;15572;48.810;9.148;2023-02-15T10:49:40;45.40;;;25.60;;
28311;SDS011;15572;48.810;9.148;2023-02-15T10:54:55;44.03;;;25.07;;
28311;SDS011;15572;48.810;9.148;2023-02-15T11:00:05;42.10;;;24.93;;
28311;SDS011;15572;48.810;9.148;2023-02-15T11:05:16;42.80;;;25.47;;
28311;SDS011;15572;48.810;9.148;2023-02-15T11:10:33;48.63;;;25.87;;
28311;SDS011;15572;48.810;9.148;2023-02-15T11:15:34;39.67;;;24.07;;
28311;SDS011;15572;48.810;9.148;2023-02-15T11:20:33;45.63;;;25.03;;
28311;SDS011;15572;48.810;9.148;2023-02-15T11:25:35;40.90;;;25.40;;
28311;SDS011;15572;48.810;9.148;2023-02-15T11:30:35;39.67;;;25.00;;
28311;SDS011;15572;48.810;9.148;2023-02-15T11:35:42;48.40;;;27.27;;
28311;SDS011;15572;48.810;9.148;2023-02-15T11:40:47;42.77;;;27.07;;
28311;SDS011;15572;48.810;9.148;2023-02-15T11:45:45;43.47;;;25.93;;
28311;SDS011;15572;48.810;9.148;2023-02-15T11:50:42;43.30;;;27.33;;
28311;SDS011;15572;48.810;9.148;2023-02-15T11:55:40;44.13;;;27.27;;
28311;SDS011;15572;48.810;9.148;2023-02-15T12:00:41;43.10;;;26.83;;
28311;SDS011;15572;48.810;9.148;2023-02-15T12:05:42;47.27;;;26.87;;
28311;SDS011;15572;48.810;9.148;2023-02-15T12:10:42;41.83;;;25.80;;
28311;SDS011;15572;48.810;9.148;2023-02-15T12:15:55;43.83;;;26.20;;
28311;SDS011;15572;48.810;9.148;2023-02-15T12:20:57;40.70;;;25.27;;
28311;SDS011;15572;48.810;9.148;2023-02-15T12:25:56;44.80;;;25.33;;
28311;SDS011;15572;48.810;9.148;2023-02-15T12:30:55;40.77;;;25.70;;
28311;SDS011;15572;48.810;9.148;2023-02-15T12:35:55;42.70;;;26.37;;
28311;SDS011;15572;48.810;9.148;2023-02-15T12:40:59;40.70;;;25.47;;
28311;SDS011;15572;48.810;9.148;2023-02-15T12:46:12;41.13;;;24.77;;
28311;SDS011;15572;48.810;9.148;2023-02-15T12:51:14;39.27;;;24.57;;
28311;SDS011;15572;48.810;9.148;2023-02-15T12:56:11;41.87;;;24.60;;
28311;SDS011;15572;48.810;9.148;2023-02-15T13:01:14;38.00;;;24.57;;
28311;SDS011;15572;48.810;9.148;2023-02-15T13:06:11;37.30;;;25.03;;
28311;SDS011;15572;48.810;9.148;2023-02-15T13:11:09;34.93;;;24.00;;
28311;SDS011;15572;48.810;9.148;2023-02-15T13:16:09;36.87;;;24.20;;
28311;SDS011;15572;48.810;9.148;2023-02-15T13:21:11;38.47;;;24.53;;
28311;SDS011;15572;48.810;9.148;2023-02-15T13:26:11;32.47;;;23.47;;
28311;SDS011;15572;48.810;9.148;2023-02-15T13:31:12;33.00;;;23.90;;
28311;SDS011;15572;48.810;9.148;2023-02-15T13:36:12;34.23;;;23.73;;
28311;SDS011;15572;48.810;9.148;2023-02-15T13:41:15;35.73;;;23.60;;
28311;SDS011;15572;48.810;9.148;2023-02-15T13:46:19;37.57;;;23.97;;
28311;SDS011;15572;48.810;9.148;2023-02-15T13:51:26;36.70;;;23.40;;
28311;SDS011;15572;48.810;9.148;2023-02-15T13:56:33;37.50;;;24.13;;
28311;SDS011;15572;48.810;9.148;2023-02-15T14:01:42;40.60;;;24.03;;
28311;SDS011;15572;48.810;9.148;2023-02-15T14:06:55;30.93;;;22.97;;
28311;SDS011;15572;48.810;9.148;2023-02-15T14:12:10;36.70;;;23.13;;
28311;SDS011;15572;48.810;9.148;2023-02-15T14:17:21;30.23;;;21.20;;
28311;SDS011;15572;48.810;9.148;2023-02-15T14:22:29;34.33;;;22.07;;
28311;SDS011;15572;48.810;9.148;2023-02-15T14:27:36;29.73;;;20.40;;
28311;SDS011;15572;48.810;9.148;2023-02-15T14:32:39;30.23;;;21.73;;
28311;SDS011;15572;48.810;9.148;2023-02-15T14:37:41;32.77;;;22.13;;
28311;SDS011;15572;48.810;9.148;2023-02-15T14:42:48;30.53;;;21.70;;
28311;SDS011;15572;48.810;9.148;2023-02-15T14:47:55;32.03;;;21.60;;
28311;SDS011;15572;48.810;9.148;2023-02-15T14:53:15;32.33;;;21.13;;
28311;SDS011;15572;48.810;9.148;2023-02-15T14:58:27;28.43;;;20.27;;
28311;SDS011;15572;48.810;9.148;2023-02-15T15:03:23;29.73;;;19.70;;
28311;SDS011;15572;48.810;9.148;2023-02-15T15:08:25;30.90;;;19.47;;
28311;SDS011;15572;48.810;9.148;2023-02-15T15:13:35;29.07;;;18.53;;
28311;SDS011;15572;48.810;9.148;2023-02-15T15:18:43;28.33;;;18.80;;
28311;SDS011;15572;48.810;9.148;2023-02-15T15:23:43;26.93;;;18.30;;
28311;SDS011;15572;48.810;9.148;2023-02-15T15:28:53;27.30;;;17.50;;
28311;SDS011;15572;48.810;9.148;2023-02-15T15:39:53;27.93;;;16.77;;
28311;SDS011;15572;48.810;9.148;2023-02-15T15:50:38;27.13;;;19.13;;
28311;SDS011;15572;48.810;9.148;2023-02-15T15:55:38;31.33;;;19.70;;
28311;SDS011;15572;48.810;9.148;2023-02-15T16:00:36;28.43;;;20.33;;
28311;SDS011;15572;48.810;9.148;2023-02-15T16:05:37;28.90;;;20.40;;
28311;SDS011;15572;48.810;9.148;2023-02-15T16:10:34;29.53;;;20.40;;
28311;SDS011;15572;48.810;9.148;2023-02-15T16:15:36;30.50;;;20.07;;
28311;SDS011;15572;48.810;9.148;2023-02-15T16:20:40;29.97;;;18.43;;
28311;SDS011;15572;48.810;9.148;2023-02-15T16:25:38;37.33;;;21.60;;
28311;SDS011;15572;48.810;9.148;2023-02-15T16:30:44;32.43;;;20.40;;
28311;SDS011;15572;48.810;9.148;2023-02-15T16:35:42;32.13;;;19.37;;
28311;SDS011;15572;48.810;9.148;2023-02-15T16:40:51;40.90;;;22.60;;
28311;SDS011;15572;48.810;9.148;2023-02-15T16:46:01;40.17;;;22.87;;
28311;SDS011;15572;48.810;9.148;2023-02-15T16:51:00;44.10;;;22.67;;
28311;SDS011;15572;48.810;9.148;2023-02-15T16:55:57;36.80;;;20.63;;
28311;SDS011;15572;48.810;9.148;2023-02-15T17:00:57;32.00;;;19.80;;
28311;SDS011;15572;48.810;9.148;2023-02-15T17:05:56;41.33;;;23.43;;
28311;SDS011;15572;48.810;9.148;2023-02-15T17:11:04;38.87;;;24.33;;
28311;SDS011;15572;48.810;9.148;2023-02-15T17:16:21;40.97;;;25.70;;
28311;SDS011;15572;48.810;9.148;2023-02-15T17:21:24;40.00;;;23.87;;
28311;SDS011;15572;48.810;9.148;2023-02-15T17:26:23;43.20;;;24.60;;
28311;SDS011;15572;48.810;9.148;2023-02-15T17:31:23;37.23;;;21.13;;
28311;SDS011;15572;48.810;9.148;2023-02-15T17:36:23;37.97;;;22.57;;
28311;SDS011;15572;48.810;9.148;2023-02-15T17:41:23;37.37;;;22.80;;
28311;SDS011;15572;48.810;9.148;2023-02-15T17:46:20;38.27;;;23.93;;
28311;SDS011;15572;48.810;9.148;2023-02-15T17:51:19;44.23;;;25.43;;
28311;SDS011;15572;48.810;9.148;2023-02-15T17:56:16;40.03;;;22.73;;
28311;SDS011;15572;48.810;9.148;2023-02-15T18:01:13;38.40;;;21.63;;
28311;SDS011;15572;48.810;9.148;2023-02-15T18:06:32;37.07;;;22.13;;
28311;SDS011;15572;48.810;9.148;2023-02-15T18:11:48;37.17;;;22.67;;
28311;SDS011;15572;48.810;9.148;2023-02-15T18:16:44;41.07;;;23.97;;
28311;SDS011;15572;48.810;9.148;2023-02-15T18:21:43;40.70;;;24.67;;
28311;SDS011;15572;48.810;9.148;2023-02-15T18:26:40;38.37;;;23.83;;
28311;SDS011;15572;48.810;9.148;2023-02-15T18:31:36;38.20;;;22.67;;
28311;SDS011;15572;48.810;9.148;2023-02-15T18:36:35;37.70;;;22.77;;
28311;SDS011;15572;48.810;9.148;2023-02-15T18:41:39;41.50;;;23.77;;
28311;SDS011;15572;48.810;9.148;2023-02-15T18:46:35;40.63;;;22.80;;
28311;SDS011;15572;48.810;9.148;2023-02-15T18:51:32;36.00;;;22.17;;
28311;SDS011;15572;48.810;9.148;2023-02-15T18:56:33;37.43;;;23.57;;
28311;SDS011;15572;48.810;9.148;2023-02-15T19:01:31;39.53;;;23.17;;
28311;SDS011;15572;48.810;9.148;2023-02-15T19:06:28;40.67;;;21.40;;
28311;SDS011;15572;48.810;9.148;2023-02-15T19:11:26;39.30;;;21.70;;
28311;SDS011;15572;48.810;9.148;2023-02-15T19:16:25;38.87;;;23.10;;
28311;SDS011;15572;48.810;9.148;2023-02-15T19:21:25;38.90;;;22.77;;
28311;SDS011;15572;48.810;9.148;2023-02-15T19:26:23;36.63;;;22.03;;
28311;SDS011;15572;48.810;9.148;2023-02-15T19:31:20;37.57;;;22.13;;
28311;SDS011;15572;48.810;9.148;2023-02-15T19:36:18;38.87;;;22.53;;
28311;SDS011;15572;48.810;9.148;2023-02-15T19:41:20;41.33;;;25.00;;
28311;SDS011;15572;48.810;9.148;2023-02-15T19:46:19;44.07;;;24.37;;
28311;SDS011;15572;48.810;9.148;2023-02-15T19:51:17;52.87;;;26.47;;
28311;SDS011;15572;48.810;9.148;2023-02-15T19:56:16;49.13;;;26.37;;
28311;SDS011;15572;48.810;9.148;2023-02-15T20:01:17;47.87;;;24.57;;
28311;SDS011;15572;48.810;9.148;2023-02-15T20:06:14;43.30;;;23.40;;
28311;SDS011;15572;48.810;9.148;2023-02-15T20:11:11;39.50;;;21.00;;
28311;SDS011;15572;48.810;9.148;2023-02-15T20:16:10;36.90;;;20.07;;
28311;SDS011;15572;48.810;9.148;2023-02-15T20:21:08;37.70;;;20.97;;
28311;SDS011;15572;48.810;9.148;2023-02-15T20:26:11;37.13;;;21.80;;
28311;SDS011;15572;48.810;9.148;2023-02-15T20:31:13;37.07;;;21.53;;
28311;SDS011;15572;48.810;9.148;2023-02-15T20:36:11;39.27;;;20.87;;
28311;SDS011;15572;48.810;9.148;2023-02-15T20:41:11;32.73;;;18.53;;
28311;SDS011;15572;48.810;9.148;2023-02-15T20:46:29;38.00;;;19.30;;
28311;SDS011;15572;48.810;9.148;2023-02-15T20:51:26;39.10;;;19.20;;
28311;SDS011;15572;48.810;9.148;2023-02-15T20:56:23;35.13;;;19.27;;
28311;SDS011;15572;48.810;9.148;2023-02-15T21:01:20;37.47;;;18.77;;
28311;SDS011;15572;48.810;9.148;2023-02-15T21:06:17;33.27;;;18.37;;
28311;SDS011;15572;48.810;9.148;2023-02-15T21:11:15;39.17;;;21.47;;
28311;SDS011;15572;48.810;9.148;2023-02-15T21:16:14;35.50;;;19.00;;
28311;SDS011;15572;48.810;9.148;2023-02-15T21:21:13;38.57;;;19.70;;
28311;SDS011;15572;48.810;9.148;2023-02-15T21:26:16;37.30;;;19.97;;
28311;SDS011;15572;48.810;9.148;2023-02-15T21:31:14;32.13;;;17.07;;
28311;SDS011;15572;48.810;9.148;2023-02-15T21:36:13;30.97;;;17.63;;
28311;SDS011;15572;48.810;9.148;2023-02-15T21:41:15;32.27;;;18.13;;
28311;SDS011;15572;48.810;9.148;2023-02-15T21:46:30;31.20;;;16.23;;
28311;SDS011;15572;48.810;9.148;2023-02-15T21:51:44;27.00;;;15.00;;
28311;SDS011;15572;48.810;9.148;2023-02-15T21:56:59;28.00;;;15.77;;
28311;SDS011;15572;48.810;9.148;2023-02-15T22:01:57;24.40;;;12.40;;
28311;SDS011;15572;48.810;9.148;2023-02-15T22:06:54;24.13;;;12.07;;
28311;SDS011;15572;48.810;9.148;2023-02-15T22:11:51;23.63;;;12.40;;
28311;SDS011;15572;48.810;9.148;2023-02-15T22:16:50;23.80;;;13.10;;
28311;SDS011;15572;48.810;9.148;2023-02-15T22:21:46;21.57;;;11.53;;
28311;SDS011;15572;48.810;9.148;2023-02-15T22:26:43;24.50;;;13.83;;
28311;SDS011;15572;48.810;9.148;2023-02-15T22:31:39;27.27;;;13.47;;
28311;SDS011;15572;48.810;9.148;2023-02-15T22:36:37;24.10;;;13.10;;
28311;SDS011;15572;48.810;9.148;2023-02-15T22:41:34;29.30;;;14.57;;
28311;SDS011;15572;48.810;9.148;2023-02-15T22:46:30;25.63;;;13.07;;
28311;SDS011;15572;48.810;9.148;2023-02-15T22:51:27;25.20;;;13.03;;
28311;SDS011;15572;48.810;9.148;2023-02-15T22:56:34;24.80;;;14.20;;
28311;SDS011;15572;48.810;9.148;2023-02-15T23:01:34;29.87;;;17.03;;
28311;SDS011;15572;48.810;9.148;2023-02-15T23:06:32;27.67;;;14.87;;
28311;SDS011;15572;48.810;9.148;2023-02-15T23:11:30;22.97;;;13.40;;
28311;SDS011;15572;48.810;9.148;2023-02-15T23:16:27;30.33;;;15.90;;
28311;SDS011;15572;48.810;9.148;2023-02-15T23:21:25;23.20;;;11.90;;
28311;SDS011;15572;48.810;9.148;2023-02-15T23:26:24;30.73;;;13.33;;
28311;SDS011;15572;48.810;9.148;2023-02-15T23:31:24;27.30;;;14.83;;
28311;SDS011;15572;48.810;9.148;2023-02-15T23:36:24;24.10;;;13.10;;
28311;SDS011;15572;48.810;9.148;2023-02-15T23:41:23;26.63;;;12.93;;
28311;SDS011;15572;48.810;9.148;2023-02-15T23:46:24;25.87;;;13.47;;
28311;SDS011;15572;48.810;9.148;2023-02-15T23:51:26;23.57;;;13.53;;
28311;SDS011;15572;48.810;9.148;2023-02-15T23:56:24;25.73;;;13.20;;
